Nearby METAR Reports

 

NZCH - Christchurch Int, New Zealand
Distance from station: W 10km
Updated: 17 Aug 2022 09:30
Clear
Clear
 Wind from E
Wind: E 19 km/h
Temperature: 12°C
Dew Point: 9°C
Humidity: 82%
Barometer: 1014 hPa
Clouds: Clear
Visibility: 10 km
2022/08/16 21:30 NZCH 162130Z AUTO 10010KT 9999 NCD 12/09 Q1014 NOSIG